Time;durP1;ratioP1;P1;durP2;ratioP2;P2;SDS_P1;SDS_P2;PMS_P1;PMS_P2;Temp;Humidity;BMP_temperature;BMP_pressure;BME280_temperature;BME280_humidity;BME280_pressure;Samples;Min_cycle;Max_cycle;Signal;HPM_P1;HPM_P2
2023/11/26 00:01:05;;;;;;;6.07;3.17;;;;;;;-0.25;100.00;97948.78;6100996;19;20412;-75
2023/11/26 00:03:06;;;;;;;7.38;3.75;;;;;;;-0.25;100.00;97953.41;6103589;19;19999;-75
2023/11/26 00:05:07;;;;;;;8.18;3.10;;;;;;;-0.19;100.00;97955.66;6102505;19;20014;-75
2023/11/26 00:07:07;;;;;;;7.45;3.03;;;;;;;-0.26;100.00;97962.69;6100500;19;20002;-75
2023/11/26 00:09:08;;;;;;;4.47;2.38;;;;;;;-0.30;100.00;97963.34;6099201;19;20022;-75
2023/11/26 00:11:10;;;;;;;3.25;2.30;;;;;;;-0.31;100.00;97956.31;6102610;19;19999;-75
2023/11/26 00:13:10;;;;;;;4.35;3.00;;;;;;;-0.23;100.00;97956.63;6102041;19;20529;-75
2023/11/26 00:15:12;;;;;;;4.55;2.97;;;;;;;-0.31;100.00;97955.50;6102709;19;20007;-75
2023/11/26 00:17:12;;;;;;;5.95;3.05;;;;;;;-0.37;100.00;97959.50;6097816;19;20011;-75
2023/11/26 00:19:13;;;;;;;3.25;2.63;;;;;;;-0.42;100.00;97965.06;6100330;19;20007;-75
2023/11/26 00:21:13;;;;;;;8.48;3.28;;;;;;;-0.52;100.00;97962.66;6102185;19;20002;-75
2023/11/26 00:23:13;;;;;;;5.35;3.40;;;;;;;-0.54;100.00;97967.63;6101633;19;20351;-75
2023/11/26 00:25:14;;;;;;;5.43;3.40;;;;;;;-0.57;100.00;97977.22;6102786;19;20495;-74
2023/11/26 00:27:14;;;;;;;4.40;3.20;;;;;;;-0.69;100.00;97977.81;6096309;19;21437;-75
2023/11/26 00:29:14;;;;;;;4.68;2.83;;;;;;;-0.70;100.00;97978.94;6085887;19;20425;-75
2023/11/26 00:31:15;;;;;;;4.03;2.85;;;;;;;-0.78;100.00;97979.72;6085374;19;20329;-75
2023/11/26 00:33:18;;;;;;;5.07;3.03;;;;;;;-0.79;100.00;97978.13;6083727;19;20019;-75
2023/11/26 00:35:19;;;;;;;8.30;3.25;;;;;;;-0.87;100.00;97977.00;6085424;19;20092;-74
2023/11/26 00:37:19;;;;;;;13.20;2.90;;;;;;;-0.91;100.00;97981.47;6085093;19;20389;-75
2023/11/26 00:39:19;;;;;;;6.15;2.90;;;;;;;-0.94;100.00;97981.28;6084443;19;19998;-75
2023/11/26 00:41:20;;;;;;;4.07;2.40;;;;;;;-0.91;100.00;97986.06;6086411;19;20086;-75
2023/11/26 00:43:20;;;;;;;5.35;3.22;;;;;;;-0.87;100.00;97995.19;6083955;19;19998;-75
2023/11/26 00:45:21;;;;;;;3.95;2.75;;;;;;;-0.82;100.00;97995.06;6086799;19;20022;-75
2023/11/26 00:47:22;;;;;;;4.35;2.45;;;;;;;-0.86;100.00;98000.31;6083650;19;20009;-75
2023/11/26 00:49:22;;;;;;;3.92;2.70;;;;;;;-0.86;100.00;98000.31;6086135;19;20014;-75
2023/11/26 00:51:24;;;;;;;3.38;2.13;;;;;;;-0.79;100.00;98007.22;6085579;19;20006;-75
2023/11/26 00:53:25;;;;;;;;;;;;;;;-0.80;100.00;98002.91;6083186;19;21135;-75
2023/11/26 00:55:25;;;;;;;3.30;2.13;;;;;;;-0.82;100.00;98005.94;6086155;19;19942;-74
2023/11/26 00:57:26;;;;;;;4.03;2.55;;;;;;;-0.89;100.00;98013.72;6085394;19;20061;-75
2023/11/26 00:59:26;;;;;;;3.75;2.50;;;;;;;-0.87;100.00;98016.94;6086121;19;20046;-75
2023/11/26 01:01:26;;;;;;;3.67;2.30;;;;;;;-0.92;100.00;98012.44;6086597;19;20002;-75
2023/11/26 01:03:27;;;;;;;3.22;2.30;;;;;;;-0.97;100.00;98009.06;6085594;19;20090;-75
2023/11/26 01:05:27;;;;;;;3.47;2.33;;;;;;;-0.94;100.00;98013.88;6082963;19;20244;-75
2023/11/26 01:07:30;;;;;;;4.45;2.50;;;;;;;-1.00;100.00;98015.13;6083793;19;20006;-75
2023/11/26 01:09:30;;;;;;;3.70;2.50;;;;;;;-1.03;100.00;98019.25;6085714;19;20002;-75
2023/11/26 01:11:31;;;;;;;3.22;2.20;;;;;;;-0.99;100.00;98017.53;6086253;19;20547;-75
2023/11/26 01:13:31;;;;;;;3.25;2.30;;;;;;;-0.99;100.00;98017.53;6085433;19;20086;-75
2023/11/26 01:15:33;;;;;;;3.85;2.53;;;;;;;-1.01;100.00;98018.94;6086076;19;19998;-75
2023/11/26 01:17:37;;;;;;;6.32;3.13;;;;;;;-0.98;100.00;98031.91;6084238;19;20387;-75
2023/11/26 01:19:37;;;;;;;4.68;2.55;;;;;;;-0.99;100.00;98031.13;6085724;19;19995;-75
2023/11/26 01:21:38;;;;;;;5.68;2.28;;;;;;;-0.94;100.00;98024.72;6086076;19;20007;-74
2023/11/26 01:23:38;;;;;;;3.70;2.50;;;;;;;-0.98;100.00;98023.78;6085111;19;20006;-74
2023/11/26 01:25:39;;;;;;;3.83;2.03;;;;;;;-0.90;100.00;98028.44;6085052;19;20233;-75
2023/11/26 01:27:40;;;;;;;4.05;2.58;;;;;;;-0.89;100.00;98033.53;6090500;19;20053;-75
2023/11/26 01:29:40;;;;;;;2.83;2.22;;;;;;;-0.91;100.00;98033.06;6101258;19;20002;-75
2023/11/26 01:31:40;;;;;;;4.13;2.40;;;;;;;-0.88;100.00;98039.78;6100593;19;20036;-75
2023/11/26 01:33:41;;;;;;;4.63;2.00;;;;;;;-0.87;100.00;98035.94;6099981;19;20004;-74
2023/11/26 01:35:41;;;;;;;3.80;2.40;;;;;;;-0.95;100.00;98034.78;6100174;19;20486;-74
2023/11/26 01:37:42;;;;;;;5.45;2.40;;;;;;;-1.00;100.00;98036.84;6099566;19;20062;-74
2023/11/26 01:39:42;;;;;;;5.93;2.50;;;;;;;-1.04;100.00;98042.09;6101131;19;20006;-75
2023/11/26 01:41:42;;;;;;;4.07;2.47;;;;;;;-1.08;100.00;98043.81;6101346;19;20466;-75
2023/11/26 01:43:43;;;;;;;4.55;2.30;;;;;;;-1.10;100.00;98040.63;6100830;19;20026;-75
2023/11/26 01:45:43;;;;;;;4.47;2.20;;;;;;;-1.13;100.00;98038.56;6100084;19;20025;-75
2023/11/26 01:47:44;;;;;;;4.95;2.60;;;;;;;-1.18;100.00;98038.69;6099211;19;20788;-75
2023/11/26 01:49:44;;;;;;;5.03;2.85;;;;;;;-1.23;100.00;98049.69;6100748;19;20010;-75
2023/11/26 01:51:45;;;;;;;5.85;2.70;;;;;;;-1.28;100.00;98042.47;6098598;19;20010;-75
2023/11/26 01:53:49;;;;;;;4.00;2.40;;;;;;;-1.30;100.00;98049.31;6100513;19;20255;-75
2023/11/26 01:55:50;;;;;;;3.85;2.40;;;;;;;-1.25;100.00;98043.75;6100456;19;20731;-74
2023/11/26 01:57:50;;;;;;;5.57;2.70;;;;;;;-1.30;100.00;98046.59;6096580;19;20010;-75
2023/11/26 01:59:51;;;;;;;5.03;2.72;;;;;;;-1.39;100.00;98040.34;6099720;19;20002;-75
2023/11/26 02:01:52;;;;;;;4.35;2.30;;;;;;;-1.43;100.00;98043.66;6101022;19;20377;-75
2023/11/26 02:03:53;;;;;;;7.10;3.20;;;;;;;-1.40;100.00;98047.66;6099353;19;20006;-75
2023/11/26 02:05:53;;;;;;;3.95;2.80;;;;;;;-1.42;100.00;98049.88;6099990;19;20107;-74
2023/11/26 02:07:54;;;;;;;4.38;2.45;;;;;;;-1.47;100.00;98048.09;6097062;19;20007;-75
2023/11/26 02:09:54;;;;;;;3.42;2.38;;;;;;;-1.44;100.00;98043.97;6100571;19;20030;-75
2023/11/26 02:11:55;;;;;;;5.00;2.90;;;;;;;-1.47;100.00;98050.81;6099696;19;20333;-75
2023/11/26 02:13:56;;;;;;;5.53;2.60;;;;;;;-1.52;100.00;98047.41;6100258;19;20070;-75
2023/11/26 02:15:56;;;;;;;3.75;2.53;;;;;;;-1.49;100.00;98052.22;6098911;19;20014;-74
2023/11/26 02:17:57;;;;;;;4.15;2.58;;;;;;;-1.51;100.00;98044.38;6096469;19;20477;-75
2023/11/26 02:20:03;;;;;;;3.97;2.30;;;;;;;-1.54;100.00;98038.78;6099845;19;20010;-74
2023/11/26 02:22:07;;;;;;;4.75;2.35;;;;;;;-1.59;100.00;98041.63;6099224;19;20014;-74
2023/11/26 02:24:14;;;;;;;3.30;2.28;;;;;;;-1.64;100.00;98045.28;6098722;19;19999;-75
2023/11/26 02:26:14;;;;;;;3.95;2.30;;;;;;;-1.66;100.00;98044.75;6098820;19;20003;-75
2023/11/26 02:28:15;;;;;;;6.95;2.53;;;;;;;-1.56;100.00;98052.69;6098264;19;20013;-74
2023/11/26 02:30:20;;;;;;;6.28;2.50;;;;;;;-1.63;100.00;98054.22;6099384;19;20016;-75
2023/11/26 02:32:20;;;;;;;3.42;2.50;;;;;;;-1.65;100.00;98048.31;6098481;19;20312;-75
2023/11/26 02:34:22;;;;;;;3.70;2.50;;;;;;;-1.61;100.00;98052.78;6097281;19;20022;-75
2023/11/26 02:36:25;;;;;;;4.53;2.85;;;;;;;-1.62;100.00;98063.97;6099337;19;20011;-74
2023/11/26 02:38:25;;;;;;;3.55;2.22;;;;;;;-1.66;100.00;98057.53;6095849;19;20018;-75
2023/11/26 02:40:26;;;;;;;3.17;2.08;;;;;;;-1.67;100.00;98058.63;6099820;19;20022;-75
2023/11/26 02:42:26;;;;;;;5.13;2.38;;;;;;;-1.66;100.00;98058.31;6100867;19;20011;-74
2023/11/26 02:44:26;;;;;;;5.40;2.35;;;;;;;-1.72;100.00;98060.38;6100974;19;20014;-75
2023/11/26 02:46:27;;;;;;;3.80;2.30;;;;;;;-1.70;100.00;98066.28;6099135;19;20017;-75
2023/11/26 02:48:28;;;;;;;5.28;2.50;;;;;;;-1.65;100.00;98056.44;6096159;19;20053;-75
2023/11/26 02:50:28;;;;;;;4.35;2.70;;;;;;;-1.70;100.00;98051.94;6100980;19;20465;-75
2023/11/26 02:52:28;;;;;;;4.85;2.10;;;;;;;-1.77;100.00;98062.41;6099498;19;20022;-75
2023/11/26 02:54:29;;;;;;;2.38;1.88;;;;;;;-1.83;100.00;98059.00;6100121;19;20015;-75
2023/11/26 02:56:29;;;;;;;3.72;2.35;;;;;;;-1.84;100.00;98068.25;6099687;19;20333;-75
2023/11/26 02:58:29;;;;;;;2.88;2.13;;;;;;;-1.87;100.00;98068.06;6098785;19;20507;-75
2023/11/26 03:00:30;;;;;;;4.63;2.28;;;;;;;-1.91;100.00;98075.19;6099579;19;20031;-75
2023/11/26 03:02:34;;;;;;;3.45;2.55;;;;;;;-1.96;100.00;98080.75;6101135;19;20026;-75
2023/11/26 03:04:37;;;;;;;10.25;2.58;;;;;;;-1.99;100.00;98084.84;6105070;19;20016;-75
2023/11/26 03:06:39;;;;;;;3.05;2.25;;;;;;;-2.06;100.00;98079.88;6105486;19;20245;-75
2023/11/26 03:08:40;;;;;;;3.53;2.40;;;;;;;-2.07;100.00;98077.44;6104038;19;20353;-75
2023/11/26 03:13:20;;;;;;;5.40;2.38;;;;;;;-2.11;100.00;98084.59;6106082;19;20025;-75
2023/11/26 03:15:20;;;;;;;4.35;2.75;;;;;;;-2.12;100.00;98081.09;6104207;19;20086;-75
2023/11/26 03:17:22;;;;;;;5.97;2.47;;;;;;;-2.10;100.00;98086.19;6101816;19;20429;-75
2023/11/26 03:19:23;;;;;;;4.45;2.53;;;;;;;-2.08;100.00;98079.34;6104822;19;20025;-75
2023/11/26 03:21:28;;;;;;;4.95;2.97;;;;;;;-2.09;100.00;98076.97;6104392;19;20011;-75
2023/11/26 03:23:30;;;;;;;3.95;2.58;;;;;;;-2.07;100.00;98086.41;6104788;19;20027;-75
2023/11/26 03:25:31;;;;;;;5.30;2.55;;;;;;;-2.11;100.00;98079.97;6104301;19;20342;-75
2023/11/26 03:27:33;;;;;;;3.70;2.42;;;;;;;-2.10;100.00;98091.63;6103022;19;20006;-75
2023/11/26 03:29:34;;;;;;;5.45;2.35;;;;;;;-2.12;100.00;98089.22;6104827;19;20007;-75
2023/11/26 03:31:34;;;;;;;3.90;2.30;;;;;;;-2.08;100.00;98086.69;6104385;19;20006;-75
2023/11/26 03:33:34;;;;;;;5.88;2.42;;;;;;;-2.09;100.00;98083.19;6103301;19;20006;-75
2023/11/26 03:35:35;;;;;;;4.35;2.20;;;;;;;-2.09;100.00;98085.91;6104961;19;20481;-75
2023/11/26 03:37:36;;;;;;;3.90;2.28;;;;;;;-2.10;100.00;98089.72;6103387;19;20018;-75
2023/11/26 03:39:40;;;;;;;6.97;3.35;;;;;;;-2.10;100.00;98086.19;6104039;19;20006;-75
2023/11/26 03:41:40;;;;;;;5.60;2.47;;;;;;;-2.08;100.00;98094.81;6104973;19;20372;-74
2023/11/26 03:43:41;;;;;;;5.85;2.70;;;;;;;-2.00;100.00;98094.91;6104615;19;20007;-75
2023/11/26 03:45:41;;;;;;;4.20;2.30;;;;;;;-1.98;100.00;98097.34;6104630;19;20010;-75
2023/11/26 03:47:42;;;;;;;3.35;2.55;;;;;;;-1.96;100.00;98091.59;6102191;19;20010;-75
2023/11/26 03:49:42;;;;;;;4.80;2.78;;;;;;;-1.93;100.00;98096.41;6104571;19;20003;-75
2023/11/26 03:51:42;;;;;;;7.32;2.92;;;;;;;-1.90;100.00;98101.19;6104203;19;20002;-75
2023/11/26 03:53:43;;;;;;;4.50;2.97;;;;;;;-1.84;100.00;98100.78;6104632;19;20034;-74
2023/11/26 03:55:43;;;;;;;6.05;2.80;;;;;;;-1.80;100.00;98104.50;6103684;19;20107;-75
2023/11/26 03:57:44;;;;;;;5.53;2.92;;;;;;;-1.72;100.00;98103.78;6102868;19;20485;-75
2023/11/26 03:59:45;;;;;;;6.57;3.17;;;;;;;-1.66;100.00;98109.06;6103513;19;20327;-75
2023/11/26 04:01:46;;;;;;;10.97;4.17;;;;;;;-1.71;100.00;98107.28;6104145;19;20022;-74
2023/11/26 04:03:46;;;;;;;5.93;3.25;;;;;;;-1.70;100.00;98109.69;6102342;19;20422;-75
2023/11/26 04:05:47;;;;;;;6.15;3.35;;;;;;;-1.69;100.00;98105.06;6104258;19;20007;-75
2023/11/26 04:07:47;;;;;;;8.02;3.83;;;;;;;-1.64;100.00;98115.00;6101912;19;20019;-75
2023/11/26 04:09:48;;;;;;;5.40;3.53;;;;;;;-1.61;100.00;98106.25;6103381;19;20015;-75
2023/11/26 04:11:48;;;;;;;6.10;3.67;;;;;;;-1.66;100.00;98104.44;6104616;19;20312;-74
2023/11/26 04:13:49;;;;;;;5.43;3.17;;;;;;;-1.67;100.00;98116.41;6101096;19;20013;-75
2023/11/26 04:15:55;;;;;;;4.93;3.05;;;;;;;-1.66;100.00;98107.16;6103123;19;20003;-75
2023/11/26 04:17:55;;;;;;;8.40;3.65;;;;;;;-1.68;100.00;98114.81;6103285;19;20105;-75
2023/11/26 04:19:55;;;;;;;13.80;4.25;;;;;;;-1.71;100.00;98110.81;6104486;19;20030;-74
2023/11/26 04:21:56;;;;;;;6.25;3.22;;;;;;;-1.72;100.00;98114.63;6102896;19;20013;-75
2023/11/26 04:23:56;;;;;;;7.03;3.42;;;;;;;-1.72;100.00;98117.34;6103312;19;20017;-75
2023/11/26 04:25:58;;;;;;;4.97;3.13;;;;;;;-1.75;100.00;98111.72;6103278;19;20562;-74
2023/11/26 04:27:58;;;;;;;7.68;3.67;;;;;;;-1.77;100.00;98112.03;6087800;19;20857;-75
2023/11/26 04:29:58;;;;;;;6.07;4.13;;;;;;;-1.83;100.00;98118.66;6103847;19;20022;-75
2023/11/26 04:31:59;;;;;;;4.82;3.35;;;;;;;-1.87;100.00;98112.25;6103188;19;20058;-75
2023/11/26 04:34:02;;;;;;;6.47;3.67;;;;;;;-1.89;100.00;98114.47;6102525;19;19999;-74
2023/11/26 04:36:03;;;;;;;4.57;3.22;;;;;;;-1.89;100.00;98124.53;6102027;19;20015;-74
2023/11/26 04:38:03;;;;;;;5.53;3.60;;;;;;;-1.96;100.00;98127.66;6095363;19;20542;-75
2023/11/26 04:40:09;;;;;;;5.60;3.67;;;;;;;-1.98;100.00;98124.44;6102071;19;20459;-75
2023/11/26 04:42:09;;;;;;;6.43;3.88;;;;;;;-1.92;100.00;98130.53;6102552;19;20007;-74
2023/11/26 04:44:10;;;;;;;4.95;2.90;;;;;;;-2.00;100.00;98121.22;6099015;19;20014;-75
2023/11/26 04:46:10;;;;;;;6.28;4.00;;;;;;;-2.03;100.00;98125.34;6098276;19;20352;-74
2023/11/26 04:48:10;;;;;;;4.90;3.20;;;;;;;-2.06;100.00;98125.16;6099653;19;20122;-75
2023/11/26 04:50:11;;;;;;;7.32;3.47;;;;;;;-2.07;100.00;98126.25;6101727;19;20003;-75
2023/11/26 04:52:13;;;;;;;4.70;2.97;;;;;;;-2.10;100.00;98124.16;6099971;19;20011;-75
2023/11/26 04:54:13;;;;;;;5.30;3.38;;;;;;;-2.12;100.00;98126.38;6102167;19;20261;-75
2023/11/26 04:56:14;;;;;;;5.43;3.53;;;;;;;-2.13;100.00;98124.78;6099726;19;20328;-74
2023/11/26 04:58:14;;;;;;;6.05;3.28;;;;;;;-2.13;100.00;98125.56;6098773;19;20007;-74
2023/11/26 05:00:15;;;;;;;5.50;3.20;;;;;;;-2.15;100.00;98129.66;6101436;19;20003;-75
2023/11/26 05:02:18;;;;;;;6.07;3.78;;;;;;;-2.17;100.00;98127.28;6102438;19;20403;-75
2023/11/26 05:04:19;;;;;;;7.72;3.60;;;;;;;-2.16;100.00;98125.38;6101866;19;20002;-74
2023/11/26 05:06:20;;;;;;;9.25;3.78;;;;;;;-2.20;100.00;98129.78;6102269;19;20010;-74
2023/11/26 05:08:20;;;;;;;5.72;3.30;;;;;;;-2.19;100.00;98123.28;6095608;19;20027;-74
2023/11/26 05:10:20;;;;;;;6.43;3.67;;;;;;;-2.25;100.00;98130.69;6102395;19;20427;-74
2023/11/26 05:12:21;;;;;;;5.10;3.67;;;;;;;-2.26;100.00;98132.59;6101180;19;20014;-74
2023/11/26 05:14:22;;;;;;;6.35;3.55;;;;;;;-2.33;100.00;98134.09;6100920;19;19994;-74
2023/11/26 05:16:23;;;;;;;9.88;3.35;;;;;;;-2.36;100.00;98119.28;6098437;19;20031;-75
2023/11/26 05:18:24;;;;;;;7.55;3.33;;;;;;;-2.33;100.00;98126.78;6099882;19;20445;-74
2023/11/26 05:20:26;;;;;;;5.18;3.15;;;;;;;-2.39;100.00;98129.91;6101852;19;20017;-74
2023/11/26 05:22:26;;;;;;;6.65;3.30;;;;;;;-2.43;100.00;98131.63;6101876;19;20088;-75
2023/11/26 05:24:26;;;;;;;4.15;2.70;;;;;;;-2.44;100.00;98140.84;6102472;19;20354;-74
2023/11/26 05:26:27;;;;;;;5.95;2.97;;;;;;;-2.45;100.00;98145.47;6101288;19;20009;-74
2023/11/26 05:28:28;;;;;;;6.53;3.13;;;;;;;-2.48;100.00;98145.25;6084545;19;20024;-75
2023/11/26 05:30:28;;;;;;;8.85;3.22;;;;;;;-2.49;100.00;98141.75;6086407;19;20804;-75
2023/11/26 05:32:29;;;;;;;7.00;3.08;;;;;;;-2.49;100.00;98144.44;6085027;19;20017;-74
2023/11/26 05:34:29;;;;;;;5.75;2.65;;;;;;;-2.48;100.00;98151.50;6085154;19;20002;-74
2023/11/26 05:36:30;;;;;;;4.95;2.90;;;;;;;-2.41;100.00;98151.06;6085716;19;20101;-75
2023/11/26 05:38:30;;;;;;;4.72;2.80;;;;;;;-2.42;100.00;98149.47;6085897;19;20014;-75
2023/11/26 05:40:31;;;;;;;6.63;3.13;;;;;;;-2.49;100.00;98154.47;6085625;19;20015;-75
2023/11/26 05:42:31;;;;;;;4.95;2.70;;;;;;;-2.44;100.00;98151.69;6084227;19;20002;-74
2023/11/26 05:44:32;;;;;;;5.13;2.90;;;;;;;-2.44;100.00;98154.41;6084908;19;20458;-74
2023/11/26 05:46:32;;;;;;;5.43;2.50;;;;;;;-2.40;100.00;98167.06;6084833;19;19999;-74
2023/11/26 05:48:34;;;;;;;4.30;2.78;;;;;;;-2.44;100.00;98160.63;6083947;19;20407;-75
2023/11/26 05:50:34;;;;;;;4.45;2.60;;;;;;;-2.38;100.00;98169.47;6082023;19;20940;-75
2023/11/26 05:52:35;;;;;;;4.50;2.95;;;;;;;-2.34;100.00;98167.72;6085345;19;20012;-75
2023/11/26 05:54:35;;;;;;;3.90;2.80;;;;;;;-2.21;100.00;98168.84;6082621;19;20020;-75
2023/11/26 05:56:35;;;;;;;4.07;3.10;;;;;;;-2.22;100.00;98176.19;6083825;19;20029;-75
2023/11/26 05:58:36;;;;;;;4.05;2.88;;;;;;;-2.29;100.00;98179.28;6084737;19;20017;-75
2023/11/26 06:00:36;;;;;;;4.50;2.33;;;;;;;-2.30;100.00;98174.16;6083707;19;20015;-75
2023/11/26 06:02:36;;;;;;;4.93;3.17;;;;;;;-2.33;100.00;98182.88;6084959;19;20010;-75
2023/11/26 06:04:37;;;;;;;4.10;2.63;;;;;;;-2.44;100.00;98176.06;6082210;19;20478;-75
2023/11/26 06:06:37;;;;;;;5.18;2.40;;;;;;;-2.50;100.00;98188.09;6082871;19;20452;-75
2023/11/26 06:08:38;;;;;;;4.25;3.05;;;;;;;-2.53;100.00;98183.28;6082527;19;20436;-75
2023/11/26 06:10:38;;;;;;;6.60;3.22;;;;;;;-2.58;100.00;98179.56;6084830;19;20626;-75
2023/11/26 06:12:38;;;;;;;6.07;3.60;;;;;;;-2.60;100.00;98184.47;6084130;19;19999;-75
2023/11/26 06:14:39;;;;;;;7.10;3.15;;;;;;;-2.66;100.00;98177.53;6084137;19;20034;-75
2023/11/26 06:16:43;;;;;;;6.70;2.80;;;;;;;-2.62;100.00;98181.28;6084405;19;20006;-75
2023/11/26 06:18:43;;;;;;;5.05;2.78;;;;;;;-2.60;100.00;98186.38;6083734;19;20014;-75
2023/11/26 06:20:44;;;;;;;5.47;3.53;;;;;;;-2.56;100.00;98182.78;6083008;19;20006;-75
2023/11/26 06:22:44;;;;;;;6.95;3.70;;;;;;;-2.55;100.00;98189.00;6084385;19;20003;-75
2023/11/26 06:24:45;;;;;;;11.93;3.53;;;;;;;-2.49;100.00;98187.00;6083143;19;20010;-75
2023/11/26 06:26:45;;;;;;;4.60;3.03;;;;;;;-2.54;100.00;98190.63;6083566;19;20010;-75
2023/11/26 06:28:46;;;;;;;5.13;3.08;;;;;;;-2.48;100.00;98197.56;6098809;19;20014;-75
2023/11/26 06:30:46;;;;;;;11.13;3.35;;;;;;;-2.39;100.00;98195.75;6100088;19;20011;-75
2023/11/26 06:32:46;;;;;;;10.57;5.03;;;;;;;-2.39;100.00;98203.88;6100856;19;20011;-75
2023/11/26 06:34:47;;;;;;;9.27;5.22;;;;;;;-2.41;100.00;98195.22;6098794;19;19999;-75
2023/11/26 06:36:48;;;;;;;10.40;5.95;;;;;;;-2.39;100.00;98213.91;6098714;19;20449;-75
2023/11/26 06:38:54;;;;;;;13.07;6.35;;;;;;;-2.36;100.00;98203.25;6103467;19;20011;-75
2023/11/26 06:40:54;;;;;;;13.63;6.05;;;;;;;-2.30;100.00;98207.50;6106858;19;20002;-75
2023/11/26 06:42:54;;;;;;;12.90;6.30;;;;;;;-2.29;100.00;98209.09;6105652;19;20006;-75
2023/11/26 06:44:56;;;;;;;12.65;5.72;;;;;;;-2.28;100.00;98210.69;6104539;19;20011;-75
2023/11/26 06:46:57;;;;;;;18.48;8.68;;;;;;;-2.28;100.00;98209.91;6105010;19;20450;-74
2023/11/26 06:48:58;;;;;;;14.18;6.70;;;;;;;-2.23;100.00;98208.97;6103798;19;20010;-74
2023/11/26 06:50:58;;;;;;;7.75;4.22;;;;;;;-2.27;100.00;98206.06;6104770;19;20024;-75
2023/11/26 06:52:58;;;;;;;9.43;4.85;;;;;;;-2.23;100.00;98208.97;6105462;19;20568;-75
2023/11/26 06:54:59;;;;;;;9.43;4.40;;;;;;;-2.20;100.00;98214.63;6106019;19;20405;-75
2023/11/26 06:56:59;;;;;;;9.93;4.40;;;;;;;-2.20;100.00;98211.09;6104706;19;20007;-75
2023/11/26 06:58:59;;;;;;;8.55;4.53;;;;;;;-2.16;100.00;98207.47;6103957;19;20010;-75
2023/11/26 07:01:00;;;;;;;9.77;4.95;;;;;;;-2.16;100.00;98212.09;6104599;19;20609;-75
2023/11/26 07:03:00;;;;;;;8.18;3.88;;;;;;;-2.08;100.00;98208.69;6105409;19;20820;-75
2023/11/26 07:05:00;;;;;;;7.03;4.30;;;;;;;-2.14;100.00;98205.28;6105339;19;20007;-75
2023/11/26 07:07:01;;;;;;;7.88;4.25;;;;;;;-2.17;100.00;98211.28;6105719;19;20010;-74
2023/11/26 07:09:03;;;;;;;10.30;5.15;;;;;;;-2.17;100.00;98208.59;6102792;19;20006;-75
2023/11/26 07:11:04;;;;;;;9.38;4.25;;;;;;;-2.18;100.00;98208.88;6103818;19;20363;-75
2023/11/26 07:13:05;;;;;;;8.27;4.78;;;;;;;-2.18;100.00;98206.19;6104241;19;20010;-74
2023/11/26 07:15:06;;;;;;;9.55;4.82;;;;;;;-2.10;100.00;98211.69;6104195;19;20003;-75
2023/11/26 07:17:07;;;;;;;11.25;5.10;;;;;;;-2.12;100.00;98211.22;6103049;19;20010;-75
2023/11/26 07:19:08;;;;;;;12.75;6.03;;;;;;;-2.07;100.00;98208.41;6103674;19;20125;-75
2023/11/26 07:21:09;;;;;;;12.95;5.93;;;;;;;-2.03;100.00;98205.88;6103050;19;20006;-75
2023/11/26 07:23:10;;;;;;;14.57;7.82;;;;;;;-1.94;100.00;98205.97;6103456;19;20022;-75
2023/11/26 07:25:10;;;;;;;17.00;8.77;;;;;;;-1.84;100.00;98219.31;6104733;19;20442;-75
2023/11/26 07:27:10;;;;;;;10.48;6.05;;;;;;;-1.78;100.00;98218.09;6104236;19;20003;-74
2023/11/26 07:29:11;;;;;;;9.20;5.03;;;;;;;-1.71;100.00;98223.94;6105393;19;20247;-75
2023/11/26 07:31:13;;;;;;;12.60;5.82;;;;;;;-1.66;100.00;98217.56;6104766;19;20003;-75
2023/11/26 07:33:13;;;;;;;10.23;5.40;;;;;;;-1.63;100.00;98216.97;6104661;19;20042;-75
2023/11/26 07:35:14;;;;;;;10.82;5.35;;;;;;;-1.59;100.00;98220.69;6105302;19;20018;-74
2023/11/26 07:37:15;;;;;;;10.70;6.15;;;;;;;-1.51;100.00;98215.34;6103172;19;20083;-74
2023/11/26 07:39:15;;;;;;;8.85;5.30;;;;;;;-1.44;100.00;98220.34;6104900;19;20006;-75
2023/11/26 07:41:15;;;;;;;11.80;5.78;;;;;;;-1.49;100.00;98217.72;6106021;19;20007;-75
2023/11/26 07:43:16;;;;;;;9.88;5.43;;;;;;;-1.44;100.00;98218.44;6104220;19;20014;-75
2023/11/26 07:45:16;;;;;;;13.30;5.25;;;;;;;-1.34;100.00;98220.09;6102728;19;20014;-75
2023/11/26 07:47:16;;;;;;;10.82;5.38;;;;;;;-1.37;100.00;98217.22;6103921;19;20029;-75
2023/11/26 07:49:17;;;;;;;10.23;6.18;;;;;;;-1.37;100.00;98222.66;6102011;19;20070;-74
2023/11/26 07:51:17;;;;;;;10.40;6.03;;;;;;;-1.32;100.00;98226.06;6105202;19;20023;-75
2023/11/26 07:53:18;;;;;;;11.10;5.97;;;;;;;-1.31;100.00;98232.28;6104594;19;20017;-75
2023/11/26 07:55:18;;;;;;;9.75;5.45;;;;;;;-1.27;100.00;98233.25;6105458;19;20576;-75
2023/11/26 07:57:19;;;;;;;12.90;6.45;;;;;;;-1.19;100.00;98230.63;6103123;19;20015;-75
2023/11/26 07:59:19;;;;;;;11.48;5.50;;;;;;;-1.09;100.00;98228.78;6103672;19;20019;-75
2023/11/26 08:01:19;;;;;;;14.00;5.93;;;;;;;-1.03;100.00;98227.53;6104635;19;20014;-75
2023/11/26 08:03:22;;;;;;;8.68;5.63;;;;;;;-1.01;100.00;98228.84;6105134;19;19998;-75
2023/11/26 08:05:23;;;;;;;8.20;5.40;;;;;;;-0.97;100.00;98238.00;6104867;19;20591;-75
2023/11/26 08:07:24;;;;;;;11.93;5.03;;;;;;;-0.92;100.00;98239.75;6102941;19;20002;-75
2023/11/26 08:09:24;;;;;;;6.43;3.97;;;;;;;-0.89;100.00;98233.72;6104508;19;20511;-75
2023/11/26 08:11:28;;;;;;;5.90;4.32;;;;;;;-0.87;100.00;98239.66;6104647;19;20003;-75
2023/11/26 08:13:31;;;;;;;10.90;5.30;;;;;;;-0.77;100.00;98244.03;6101778;19;20006;-75
2023/11/26 08:15:31;;;;;;;6.65;4.40;;;;;;;-0.83;100.00;98234.38;6104758;19;20020;-74
2023/11/26 08:17:35;;;;;;;13.20;4.25;;;;;;;-0.79;100.00;98240.81;6101526;19;19998;-75
2023/11/26 08:19:36;;;;;;;10.27;4.30;;;;;;;-0.83;100.00;98234.38;6103763;19;20012;-75
2023/11/26 08:21:37;;;;;;;9.07;4.25;;;;;;;-0.82;100.00;98234.09;6103258;19;20010;-75
2023/11/26 08:23:43;;;;;;;8.57;5.03;;;;;;;-0.90;100.00;98232.94;6103298;19;20494;-74
2023/11/26 08:25:44;;;;;;;10.20;4.95;;;;;;;-0.95;100.00;98234.97;6100812;19;20002;-74
2023/11/26 08:27:46;;;;;;;12.30;6.68;;;;;;;-0.92;100.00;98235.13;6100149;19;20031;-75
2023/11/26 08:29:46;;;;;;;13.48;6.32;;;;;;;-0.97;100.00;98240.69;6104039;19;20324;-75
2023/11/26 08:31:47;;;;;;;18.88;9.45;;;;;;;-0.98;100.00;98232.88;6098186;19;20005;-75
2023/11/26 08:33:48;;;;;;;20.80;10.30;;;;;;;-0.98;100.00;98238.31;6097120;19;20070;-75
2023/11/26 08:35:52;;;;;;;28.08;15.00;;;;;;;-1.00;100.00;98238.59;6100139;19;20015;-75
2023/11/26 08:37:53;;;;;;;18.58;10.57;;;;;;;-0.96;100.00;98241.50;6100127;19;20007;-75
2023/11/26 08:39:54;;;;;;;22.15;12.98;;;;;;;-0.93;100.00;98240.88;6103388;19;20070;-75
2023/11/26 08:41:54;;;;;;;23.92;11.07;;;;;;;-0.90;100.00;98240.28;6103003;19;20667;-74
2023/11/26 08:43:57;;;;;;;17.02;10.18;;;;;;;-0.83;100.00;98245.25;6103896;19;20467;-75
2023/11/26 08:46:01;;;;;;;;;;;;;;;-0.70;100.00;98242.47;6103762;19;20393;-75
2023/11/26 08:48:02;;;;;;;11.82;6.70;;;;;;;-0.70;100.00;98245.19;6101862;19;19927;-74
2023/11/26 08:50:08;;;;;;;14.90;7.28;;;;;;;-0.70;100.00;98244.41;6102076;19;20320;-75
2023/11/26 08:52:10;;;;;;;10.27;6.05;;;;;;;-0.69;100.00;98241.38;6102734;19;20543;-75
2023/11/26 08:54:10;;;;;;;13.15;7.85;;;;;;;-0.61;100.00;98251.50;6101923;19;20014;-75
2023/11/26 08:56:11;;;;;;;9.98;6.03;;;;;;;-0.57;100.00;98248.97;6102408;19;20011;-74
2023/11/26 08:58:11;;;;;;;10.35;6.40;;;;;;;-0.50;100.00;98256.66;6101222;19;20396;-74
2023/11/26 09:00:12;;;;;;;11.65;6.30;;;;;;;-0.49;100.00;98245.50;6101887;19;19998;-74
2023/11/26 09:02:12;;;;;;;11.98;6.57;;;;;;;-0.49;100.00;98253.66;6102446;19;20006;-75
2023/11/26 09:04:13;;;;;;;9.73;5.25;;;;;;;-0.39;100.00;98261.53;6102389;19;20021;-74
2023/11/26 09:06:13;;;;;;;9.98;6.43;;;;;;;-0.36;100.00;98246.50;6102294;19;20074;-75
2023/11/26 09:08:14;;;;;;;8.65;5.10;;;;;;;-0.34;100.00;98241.56;6100585;19;20002;-75
2023/11/26 09:10:17;;;;;;;8.35;5.25;;;;;;;-0.24;100.00;98238.59;6102141;19;20323;-75
2023/11/26 09:12:17;;;;;;;12.00;6.18;;;;;;;-0.18;100.00;98242.75;6103288;19;20070;-74
2023/11/26 09:14:18;;;;;;;9.20;5.20;;;;;;;-0.06;100.00;98250.34;6102391;19;20255;-75
2023/11/26 09:16:19;;;;;;;7.50;4.63;;;;;;;-0.02;100.00;98254.81;6099865;19;20291;-74
2023/11/26 09:18:21;;;;;;;6.20;4.60;;;;;;;-0.01;100.00;98253.69;6101103;19;20301;-75
2023/11/26 09:20:21;;;;;;;6.90;4.22;;;;;;;0.07;100.00;98249.41;6103002;19;20654;-74
2023/11/26 09:22:22;;;;;;;8.02;4.50;;;;;;;0.17;100.00;98254.59;6101538;19;20034;-74
2023/11/26 09:24:22;;;;;;;11.32;6.22;;;;;;;0.26;100.00;98249.97;6101878;19;20309;-75